EKYT/AAL METAR and TAF weather

Enter ICAO airport designator
Station Type Date Time Source
EKYT METAR 2019/10/21 04:50 UTC NOAA

EKYT 210450Z AUTO 36002KT 9999 NCD 05/05 Q1019


Station Type Date Time Source
EKYT Decoded METAR 2019/10/21 04:50 UTC NOAA

Aalborg, Denmark (EKYT) 57-06N 009-51E 13M
Oct 21, 2019 - 12:50 AM EDT / 2019.10.21 0450 UTC
Wind: from the N (360 degrees) at 2 MPH (2 KT):0
Visibility: greater than 7 mile(s):0
Temperature: 41 F (5 C)
Dew Point: 41 F (5 C)
Relative Humidity: 100%
Pressure (altimeter): 30.09 in. Hg (1019 hPa)
ob: EKYT 210450Z AUTO 36002KT 9999 NCD 05/05 Q1019
cycle: 5

Station Type Date Time Source
EKYT TAF 2019/10/21 04:13 UTC NOAA

TAF
AMD EKYT 210406Z 2104/2203 05005KT 8000 FEW025
TEMPO 2104/2108 1200 BR BKN003
TEMPO 2108/2118 6000 BKN012
TEMPO 2118/2203 4000 -RA BKN008

Example: see airport list